Time;durP1;ratioP1;P1;durP2;ratioP2;P2;SDS_P1;SDS_P2;PMS_P1;PMS_P2;Temp;Humidity;BMP_temperature;BMP_pressure;BME280_temperature;BME280_humidity;BME280_pressure;Samples;Min_cycle;Max_cycle;Signal;HPM_P1;HPM_P2
2023/11/24 00:00:11;;;;;;;7.17;2.03;;;6.80;99.90;;;;;;5033419;28;20237;-57
2023/11/24 00:02:40;;;;;;;9.63;1.80;;;6.70;99.90;;;;;;5052199;28;20332;-57
2023/11/24 00:05:08;;;;;;;7.60;2.43;;;6.70;99.90;;;;;;5061743;28;20207;-55
2023/11/24 00:07:35;;;;;;;11.40;2.23;;;6.60;99.90;;;;;;5040042;28;20211;-57
2023/11/24 00:10:07;;;;;;;7.70;2.20;;;6.60;99.90;;;;;;5061835;28;20280;-56
2023/11/24 00:12:34;;;;;;;10.23;2.07;;;6.50;99.90;;;;;;5056878;28;20299;-56
2023/11/24 00:15:02;;;;;;;5.03;1.33;;;6.50;99.90;;;;;;5033124;28;20209;-57
2023/11/24 00:17:29;;;;;;;8.13;1.87;;;6.50;99.90;;;;;;5057546;28;20614;-54
2023/11/24 00:19:56;;;;;;;8.33;1.30;;;6.60;99.90;;;;;;5060399;28;20191;-53
2023/11/24 00:22:23;;;;;;;8.87;1.57;;;6.50;99.90;;;;;;5052657;28;20206;-49
2023/11/24 00:24:51;;;;;;;7.07;1.03;;;6.50;99.90;;;;;;5057147;28;20282;-52
2023/11/24 00:27:20;;;;;;;10.20;1.67;;;6.50;99.90;;;;;;5060007;28;20198;-53
2023/11/24 00:29:49;;;;;;;7.93;1.33;;;6.40;99.90;;;;;;5033084;28;21031;-56
2023/11/24 00:32:16;;;;;;;6.97;1.70;;;6.40;99.90;;;;;;5063077;28;20215;-52
2023/11/24 00:34:44;;;;;;;6.77;1.23;;;6.30;99.90;;;;;;5060348;28;20214;-53
2023/11/24 00:37:11;;;;;;;3.33;1.20;;;6.20;99.90;;;;;;5065107;28;20248;-55
2023/11/24 00:39:38;;;;;;;3.93;0.83;;;6.20;99.90;;;;;;5051836;28;20973;-50
2023/11/24 00:42:07;;;;;;;4.63;1.23;;;6.00;99.90;;;;;;5063621;28;20244;-54
2023/11/24 00:44:35;;;;;;;4.73;0.80;;;6.00;99.90;;;;;;5058919;28;20293;-51
2023/11/24 00:47:02;;;;;;;3.77;1.10;;;5.90;99.90;;;;;;5035829;28;20268;-59
2023/11/24 00:49:29;;;;;;;3.20;0.80;;;5.90;99.90;;;;;;5054178;28;20214;-53
2023/11/24 00:51:56;;;;;;;6.43;1.27;;;5.90;99.90;;;;;;5061454;28;20205;-52
2023/11/24 00:54:23;;;;;;;2.87;0.80;;;5.80;99.90;;;;;;5049647;28;20309;-51
2023/11/24 00:56:51;;;;;;;1.83;0.70;;;5.80;99.90;;;;;;5061203;28;20202;-56
2023/11/24 00:59:17;;;;;;;4.20;1.00;;;5.80;99.90;;;;;;5061100;28;20252;-45
2023/11/24 01:01:45;;;;;;;8.07;1.40;;;5.70;99.90;;;;;;5033423;28;20685;-52
2023/11/24 01:04:12;;;;;;;4.97;1.03;;;5.70;99.90;;;;;;5061285;28;20222;-53
2023/11/24 01:06:40;;;;;;;7.17;1.03;;;5.60;99.90;;;;;;5061764;28;20680;-47
2023/11/24 01:09:09;;;;;;;6.07;1.50;;;5.60;99.90;;;;;;5048992;28;20376;-46
2023/11/24 01:11:36;;;;;;;7.17;0.90;;;5.60;99.90;;;;;;5062943;28;20260;-48
2023/11/24 01:14:04;;;;;;;10.90;1.33;;;5.60;99.90;;;;;;5058263;28;20288;-45
2023/11/24 01:16:31;;;;;;;4.03;1.20;;;5.60;99.90;;;;;;5034632;28;20297;-50
2023/11/24 01:19:00;;;;;;;6.47;1.10;;;5.60;99.90;;;;;;5050445;28;20669;-57
2023/11/24 01:21:27;;;;;;;4.47;1.30;;;5.60;99.90;;;;;;5061620;28;20195;-44
2023/11/24 01:23:58;;;;;;;10.90;1.70;;;5.50;99.90;;;;;;5045904;28;20746;-57
2023/11/24 01:26:26;;;;;;;10.77;1.40;;;5.50;99.90;;;;;;5060955;28;20197;-50
2023/11/24 01:28:54;;;;;;;5.67;1.17;;;5.60;99.90;;;;;;5060744;28;20763;-55
2023/11/24 01:31:21;;;;;;;3.57;1.40;;;5.60;99.90;;;;;;5033205;28;22662;-49
2023/11/24 01:33:48;;;;;;;7.17;1.43;;;5.50;99.90;;;;;;5062999;28;20218;-58
2023/11/24 01:36:17;;;;;;;6.13;1.20;;;5.40;99.90;;;;;;5061340;28;20523;-48
2023/11/24 01:38:43;;;;;;;3.27;0.77;;;5.30;99.90;;;;;;5052230;28;20202;-57
2023/11/24 01:41:10;;;;;;;5.70;0.80;;;5.10;99.90;;;;;;5051419;28;20202;-52
2023/11/24 01:43:37;;;;;;;5.43;0.80;;;5.10;99.90;;;;;;5059118;28;20214;-51
2023/11/24 01:46:05;;;;;;;3.47;0.70;;;5.00;99.90;;;;;;5035167;28;21194;-51
2023/11/24 01:48:33;;;;;;;3.63;0.47;;;4.90;99.90;;;;;;5060233;28;20218;-46
2023/11/24 01:51:00;;;;;;;2.20;0.60;;;4.90;99.90;;;;;;5058462;28;20256;-56
2023/11/24 01:53:29;;;;;;;2.40;0.80;;;4.90;99.90;;;;;;5053921;28;20242;-48
2023/11/24 01:55:56;;;;;;;3.63;0.90;;;4.90;99.90;;;;;;5046811;28;20206;-56
2023/11/24 01:58:23;;;;;;;5.60;0.70;;;4.90;99.90;;;;;;5061246;28;20191;-47
2023/11/24 02:00:50;;;;;;;5.53;0.90;;;5.00;99.90;;;;;;5058281;28;20682;-54
2023/11/24 02:03:17;;;;;;;4.53;0.77;;;5.00;99.90;;;;;;5031538;28;20800;-46
2023/11/24 02:05:44;;;;;;;5.50;0.90;;;5.00;99.90;;;;;;5060701;28;20202;-50
2023/11/24 02:08:11;;;;;;;3.07;0.70;;;5.00;99.90;;;;;;5049593;28;20198;-49
2023/11/24 02:10:39;;;;;;;5.43;0.97;;;5.00;99.90;;;;;;5060836;28;20242;-48
2023/11/24 02:13:07;;;;;;;5.57;1.77;;;5.00;99.90;;;;;;5046746;28;20820;-44
2023/11/24 02:15:34;;;;;;;4.80;0.77;;;5.00;99.90;;;;;;5061574;28;20217;-46
2023/11/24 02:18:01;;;;;;;4.87;1.20;;;4.90;99.90;;;;;;5029728;28;20205;-55
2023/11/24 02:20:33;;;;;;;8.13;0.70;;;4.90;99.90;;;;;;5059994;28;20218;-50
2023/11/24 02:23:01;;;;;;;5.23;0.90;;;4.80;99.90;;;;;;5057434;28;20253;-57
2023/11/24 02:25:28;;;;;;;4.20;0.70;;;4.80;99.90;;;;;;5053756;28;20211;-45
2023/11/24 02:27:55;;;;;;;3.80;0.73;;;4.80;99.90;;;;;;5048624;28;20207;-56
2023/11/24 02:30:21;;;;;;;3.00;0.60;;;4.80;99.90;;;;;;5060162;28;20631;-50
2023/11/24 02:32:49;;;;;;;6.23;0.80;;;4.80;99.90;;;;;;5048684;28;20264;-60
2023/11/24 02:35:16;;;;;;;4.53;0.70;;;4.80;99.90;;;;;;5044455;28;20210;-50
2023/11/24 02:37:42;;;;;;;4.00;0.60;;;4.90;99.90;;;;;;5060899;28;20525;-55
2023/11/24 02:40:12;;;;;;;1.33;0.40;;;4.90;99.90;;;;;;5049277;28;20909;-51
2023/11/24 02:42:39;;;;;;;3.10;0.80;;;4.90;99.90;;;;;;5049864;28;20202;-48
2023/11/24 02:45:07;;;;;;;1.80;0.80;;;4.90;99.90;;;;;;5058777;28;20192;-48
2023/11/24 02:47:33;;;;;;;1.40;0.40;;;5.00;99.90;;;;;;5062258;28;20233;-50
2023/11/24 02:50:00;;;;;;;4.93;0.77;;;5.00;99.90;;;;;;5027617;28;20219;-56
2023/11/24 02:52:27;;;;;;;2.90;0.60;;;5.00;99.90;;;;;;5060065;28;20206;-46
2023/11/24 02:54:54;;;;;;;3.53;0.90;;;5.00;99.90;;;;;;5049301;28;20206;-56
2023/11/24 02:57:23;;;;;;;6.20;0.97;;;5.00;99.90;;;;;;5058882;28;20283;-45
2023/11/24 02:59:50;;;;;;;3.70;0.70;;;5.00;99.90;;;;;;5048026;28;20199;-56
2023/11/24 03:02:17;;;;;;;5.50;0.70;;;5.00;99.90;;;;;;5059563;28;20244;-49
2023/11/24 03:04:44;;;;;;;4.50;0.90;;;5.00;99.90;;;;;;5057363;28;20293;-59
2023/11/24 03:07:11;;;;;;;5.00;0.80;;;5.00;99.90;;;;;;5037772;28;20191;-46
2023/11/24 03:09:38;;;;;;;7.63;0.83;;;4.90;99.90;;;;;;5050896;28;20215;-51
2023/11/24 03:12:06;;;;;;;4.93;1.57;;;5.00;99.90;;;;;;5057102;28;20187;-47
2023/11/24 03:14:34;;;;;;;3.57;1.20;;;4.90;99.90;;;;;;5050653;28;20214;-45
2023/11/24 03:17:01;;;;;;;7.30;1.20;;;5.00;99.90;;;;;;5054977;28;20260;-53
2023/11/24 03:19:28;;;;;;;10.07;1.37;;;5.00;99.90;;;;;;5052015;28;20195;-57
2023/11/24 03:21:55;;;;;;;10.67;1.10;;;5.00;99.90;;;;;;5031019;28;20289;-49
2023/11/24 03:24:22;;;;;;;8.40;1.50;;;5.00;99.90;;;;;;5056272;28;20343;-56
2023/11/24 03:26:48;;;;;;;5.47;1.43;;;5.00;99.90;;;;;;5052178;28;20977;-51
2023/11/24 03:29:15;;;;;;;9.40;1.67;;;4.90;99.90;;;;;;5060365;28;20214;-47
2023/11/24 03:31:43;;;;;;;9.90;1.97;;;4.90;99.90;;;;;;5047471;28;20222;-53
2023/11/24 03:34:11;;;;;;;7.70;1.80;;;4.70;99.90;;;;;;5061764;28;20221;-47
2023/11/24 03:36:38;;;;;;;11.53;1.93;;;4.60;99.90;;;;;;5029953;28;20229;-48
2023/11/24 03:39:06;;;;;;;13.17;2.53;;;4.60;99.90;;;;;;5062564;28;20632;-50
2023/11/24 03:41:35;;;;;;;11.33;2.67;;;4.50;99.90;;;;;;5048812;28;20211;-54
2023/11/24 03:44:02;;;;;;;7.93;1.70;;;4.50;99.90;;;;;;5061280;28;20272;-48
2023/11/24 03:46:29;;;;;;;7.53;1.50;;;4.50;99.90;;;;;;5049461;28;20207;-55
2023/11/24 03:48:57;;;;;;;9.33;1.73;;;4.50;99.90;;;;;;5059171;28;20254;-45
2023/11/24 03:51:24;;;;;;;12.40;1.50;;;4.50;99.90;;;;;;5046514;28;20217;-57
2023/11/24 03:53:51;;;;;;;11.10;2.13;;;4.50;99.90;;;;;;5046113;28;20206;-51
2023/11/24 03:56:18;;;;;;;7.40;1.40;;;4.50;99.90;;;;;;5048892;28;20198;-54
2023/11/24 03:58:45;;;;;;;8.67;1.43;;;4.60;99.90;;;;;;5054895;28;20190;-52
2023/11/24 04:01:13;;;;;;;11.90;2.13;;;4.60;99.90;;;;;;5051378;28;20234;-54
2023/11/24 04:03:45;;;;;;;8.73;2.87;;;4.60;99.90;;;;;;5059452;28;20202;-47
2023/11/24 04:06:14;;;;;;;7.40;1.73;;;4.60;99.90;;;;;;5064679;28;20195;-51
2023/11/24 04:08:40;;;;;;;13.83;1.43;;;4.50;99.90;;;;;;5031980;28;20205;-47
2023/11/24 04:11:07;;;;;;;10.47;1.73;;;4.60;99.90;;;;;;5054874;28;20246;-50
2023/11/24 04:13:34;;;;;;;9.20;1.93;;;4.50;99.90;;;;;;5061200;28;20276;-55
2023/11/24 04:16:02;;;;;;;11.07;2.23;;;4.50;99.90;;;;;;5055095;28;20203;-49
2023/11/24 04:18:29;;;;;;;11.30;1.43;;;4.50;99.90;;;;;;5063316;28;20195;-56
2023/11/24 04:20:56;;;;;;;9.47;1.90;;;4.50;99.90;;;;;;5061918;28;20306;-46
2023/11/24 04:23:25;;;;;;;9.97;1.87;;;4.60;99.90;;;;;;5033886;28;20222;-56
2023/11/24 04:25:51;;;;;;;5.80;1.73;;;4.60;99.90;;;;;;5051084;28;20195;-48
2023/11/24 04:28:21;;;;;;;11.53;1.93;;;4.60;99.90;;;;;;5051526;28;20205;-57
2023/11/24 04:30:48;;;;;;;8.93;2.03;;;4.60;99.90;;;;;;5062345;28;20264;-59
2023/11/24 04:33:15;;;;;;;10.83;2.27;;;4.60;99.90;;;;;;5050711;28;20689;-57
2023/11/24 04:35:42;;;;;;;7.53;1.73;;;4.60;99.90;;;;;;5060875;28;20190;-46
2023/11/24 04:38:09;;;;;;;9.40;1.87;;;4.60;99.90;;;;;;5065203;28;20202;-50
2023/11/24 04:40:38;;;;;;;22.53;2.37;;;4.60;99.90;;;;;;5036073;28;20202;-52
2023/11/24 04:43:04;;;;;;;11.07;1.60;;;4.60;99.90;;;;;;5055520;28;20281;-53
2023/11/24 04:45:31;;;;;;;7.20;1.40;;;4.60;99.90;;;;;;5060502;28;20256;-49
2023/11/24 04:47:58;;;;;;;7.60;1.43;;;4.60;99.90;;;;;;5054442;28;20904;-50
2023/11/24 04:50:25;;;;;;;11.13;1.90;;;4.60;99.90;;;;;;5061871;28;20283;-57
2023/11/24 04:52:52;;;;;;;13.73;2.20;;;4.60;99.90;;;;;;5063738;28;20222;-49
2023/11/24 04:55:19;;;;;;;10.30;1.60;;;4.60;99.90;;;;;;5033812;28;20223;-58
2023/11/24 04:57:49;;;;;;;8.13;1.90;;;4.60;99.90;;;;;;5059854;28;20463;-51
2023/11/24 05:00:17;;;;;;;10.50;2.27;;;4.60;99.90;;;;;;5051815;28;20640;-57
2023/11/24 05:02:44;;;;;;;7.37;1.63;;;4.60;99.90;;;;;;5061933;28;20326;-47
2023/11/24 05:05:11;;;;;;;9.17;1.90;;;4.60;99.90;;;;;;5054365;28;20202;-53
2023/11/24 05:07:38;;;;;;;11.10;1.50;;;4.60;99.90;;;;;;5059864;28;20187;-46
2023/11/24 05:10:07;;;;;;;13.33;2.50;;;4.60;99.90;;;;;;5035208;28;20311;-46
2023/11/24 05:12:34;;;;;;;6.73;1.47;;;4.50;99.90;;;;;;5048713;28;20260;-49
2023/11/24 05:15:03;;;;;;;10.47;2.00;;;4.60;99.90;;;;;;5054406;28;20206;-46
2023/11/24 05:17:30;;;;;;;10.17;1.77;;;4.60;99.90;;;;;;5052854;28;20215;-49
2023/11/24 05:19:56;;;;;;;9.83;1.73;;;4.60;99.90;;;;;;5052898;28;20649;-46
2023/11/24 05:22:24;;;;;;;12.20;2.87;;;4.60;99.90;;;;;;5058612;28;20195;-53
2023/11/24 05:24:50;;;;;;;8.23;2.07;;;4.60;99.90;;;;;;5060049;28;20677;-47
2023/11/24 05:27:17;;;;;;;9.70;1.63;;;4.60;99.90;;;;;;5022158;28;20323;-52
2023/11/24 05:29:44;;;;;;;16.90;2.47;;;4.60;99.90;;;;;;5051713;28;20218;-53
2023/11/24 05:32:12;;;;;;;10.20;2.13;;;4.60;99.90;;;;;;5038250;28;20252;-52
2023/11/24 05:34:39;;;;;;;9.50;1.67;;;4.60;99.90;;;;;;5046495;28;20374;-46
2023/11/24 05:37:07;;;;;;;7.70;1.90;;;4.60;99.90;;;;;;5043974;28;20238;-51
2023/11/24 05:39:37;;;;;;;14.30;2.07;;;4.60;99.90;;;;;;5052965;28;20532;-50
2023/11/24 05:42:05;;;;;;;10.07;1.70;;;4.60;99.90;;;;;;5030668;28;20592;-50
2023/11/24 05:44:32;;;;;;;9.90;2.13;;;4.60;99.90;;;;;;5056501;28;20198;-45
2023/11/24 05:46:59;;;;;;;9.43;1.63;;;4.60;99.90;;;;;;5054592;28;20199;-45
2023/11/24 05:49:27;;;;;;;13.00;2.03;;;4.60;99.90;;;;;;5044918;28;20199;-46
2023/11/24 05:51:54;;;;;;;8.47;1.60;;;4.60;99.90;;;;;;5044905;28;20769;-45
2023/11/24 05:54:21;;;;;;;8.80;1.80;;;4.60;99.90;;;;;;5060556;28;20636;-54
2023/11/24 05:56:47;;;;;;;8.37;2.23;;;4.60;99.90;;;;;;5052477;28;20252;-47
2023/11/24 05:59:14;;;;;;;9.93;2.13;;;4.60;99.90;;;;;;5028567;28;20280;-53
2023/11/24 06:01:42;;;;;;;15.23;2.00;;;4.60;99.90;;;;;;5050846;28;20199;-47
2023/11/24 06:04:09;;;;;;;8.43;1.90;;;4.70;99.90;;;;;;5051386;28;20231;-52
2023/11/24 06:06:37;;;;;;;16.23;2.20;;;4.70;99.90;;;;;;5040630;28;20203;-48
2023/11/24 06:09:04;;;;;;;7.10;1.73;;;4.70;99.90;;;;;;5063462;28;20272;-51
2023/11/24 06:11:31;;;;;;;13.37;2.17;;;4.70;99.90;;;;;;5051677;28;23054;-46
2023/11/24 06:13:58;;;;;;;9.43;2.30;;;4.70;99.90;;;;;;5032482;28;20223;-46
2023/11/24 06:16:25;;;;;;;13.20;2.93;;;4.70;99.90;;;;;;5058008;28;20190;-48
2023/11/24 06:18:51;;;;;;;10.43;2.13;;;4.70;99.90;;;;;;5053587;28;20222;-50
2023/11/24 06:21:19;;;;;;;10.70;2.50;;;4.60;99.90;;;;;;5043275;28;20195;-53
2023/11/24 06:23:50;;;;;;;14.10;1.90;;;4.60;99.90;;;;;;5048667;28;20224;-44
2023/11/24 06:26:17;;;;;;;10.37;1.60;;;4.60;99.90;;;;;;5051521;28;20345;-49
2023/11/24 06:28:44;;;;;;;7.87;1.83;;;4.60;99.90;;;;;;5030586;28;20282;-46
2023/11/24 06:31:14;;;;;;;11.93;1.93;;;4.60;99.90;;;;;;5059734;28;20214;-51
2023/11/24 06:33:41;;;;;;;10.03;1.70;;;4.60;99.90;;;;;;5037687;28;20261;-49
2023/11/24 06:36:09;;;;;;;9.07;2.60;;;4.60;99.90;;;;;;5041640;28;20210;-53
2023/11/24 06:38:36;;;;;;;7.10;2.50;;;4.60;99.90;;;;;;5047711;28;20681;-47
2023/11/24 06:41:04;;;;;;;8.83;1.93;;;4.60;99.90;;;;;;5060932;28;20195;-52
2023/11/24 06:43:31;;;;;;;7.83;1.30;;;4.60;99.90;;;;;;5052847;28;20218;-45
2023/11/24 06:45:58;;;;;;;6.13;1.60;;;4.60;99.90;;;;;;5030145;28;20207;-53
2023/11/24 06:48:25;;;;;;;8.67;2.23;;;4.60;99.90;;;;;;5059787;28;20705;-49
2023/11/24 06:50:52;;;;;;;8.03;1.80;;;4.50;99.90;;;;;;5053689;28;20219;-45
2023/11/24 06:53:18;;;;;;;10.70;1.70;;;4.50;99.90;;;;;;5040195;28;20222;-44
2023/11/24 06:55:45;;;;;;;8.63;1.20;;;4.50;99.90;;;;;;5052255;28;20267;-45
2023/11/24 06:58:14;;;;;;;10.67;1.50;;;4.50;99.90;;;;;;5055494;28;20191;-50
2023/11/24 07:00:42;;;;;;;8.57;1.33;;;4.50;99.90;;;;;;5031461;28;20577;-48
2023/11/24 07:03:09;;;;;;;8.93;1.60;;;4.40;99.90;;;;;;5059049;28;20218;-52
2023/11/24 07:05:36;;;;;;;7.87;1.47;;;4.40;99.90;;;;;;5052465;28;20738;-48
2023/11/24 07:08:03;;;;;;;8.37;2.10;;;4.40;99.90;;;;;;5045233;28;20264;-52
2023/11/24 07:10:30;;;;;;;5.83;1.00;;;4.40;99.90;;;;;;5049747;28;20337;-47
2023/11/24 07:12:57;;;;;;;5.50;1.37;;;4.30;99.90;;;;;;5060666;28;20288;-52
2023/11/24 07:15:25;;;;;;;5.00;1.37;;;4.30;99.90;;;;;;5030359;28;20202;-48
2023/11/24 07:17:52;;;;;;;4.00;1.13;;;4.20;99.90;;;;;;5062096;28;20624;-47
2023/11/24 07:20:18;;;;;;;5.47;1.53;;;4.20;99.90;;;;;;5049200;28;20285;-46
2023/11/24 07:22:45;;;;;;;7.03;1.00;;;4.10;99.90;;;;;;5053050;28;20279;-48
2023/11/24 07:25:14;;;;;;;1.73;1.20;;;4.10;99.90;;;;;;5047347;28;20198;-51
2023/11/24 07:27:41;;;;;;;5.47;0.70;;;4.00;99.90;;;;;;5032029;28;20653;-46
2023/11/24 07:30:09;;;;;;;2.40;0.90;;;3.90;99.90;;;;;;5057229;28;20195;-51
2023/11/24 07:32:38;;;;;;;4.63;1.17;;;3.90;99.90;;;;;;5033117;28;20203;-46
2023/11/24 07:35:05;;;;;;;1.80;0.70;;;3.80;99.90;;;;;;5050379;28;20714;-51
2023/11/24 07:37:32;;;;;;;5.80;0.70;;;3.70;99.90;;;;;;5052041;28;20210;-47
2023/11/24 07:39:59;;;;;;;2.73;0.80;;;3.70;99.90;;;;;;5053919;28;20206;-51
2023/11/24 07:42:26;;;;;;;3.60;1.03;;;3.60;99.90;;;;;;5048691;28;20534;-45
2023/11/24 07:44:53;;;;;;;6.37;1.10;;;3.60;99.90;;;;;;5061154;28;20190;-52
2023/11/24 07:47:20;;;;;;;4.50;0.93;;;3.60;99.90;;;;;;5030172;28;20222;-46
2023/11/24 07:49:48;;;;;;;4.33;0.80;;;3.60;99.90;;;;;;5053521;28;20194;-48
2023/11/24 07:52:15;;;;;;;4.37;1.03;;;3.50;99.90;;;;;;5048782;28;20268;-48
2023/11/24 07:54:42;;;;;;;4.10;0.80;;;3.50;99.90;;;;;;5054817;28;20213;-46
2023/11/24 07:57:09;;;;;;;3.10;1.27;;;3.50;99.90;;;;;;5046885;28;20226;-52
2023/11/24 07:59:36;;;;;;;3.87;1.00;;;3.60;99.90;;;;;;5061387;28;20295;-51
2023/11/24 08:02:04;;;;;;;6.00;1.10;;;3.60;99.90;;;;;;5040214;28;20263;-53
2023/11/24 08:04:31;;;;;;;4.13;0.70;;;3.60;99.90;;;;;;5045602;28;20222;-47
2023/11/24 08:07:00;;;;;;;6.23;1.30;;;3.60;99.90;;;;;;5056616;28;20202;-55
2023/11/24 08:09:26;;;;;;;4.17;1.50;;;3.70;99.90;;;;;;5055991;28;20191;-44
2023/11/24 08:11:53;;;;;;;3.30;1.03;;;3.70;99.90;;;;;;5053960;28;20272;-53
2023/11/24 08:14:23;;;;;;;5.60;1.30;;;3.80;99.90;;;;;;5048961;28;20221;-49
2023/11/24 08:16:50;;;;;;;6.57;0.90;;;3.80;99.90;;;;;;5061431;28;20191;-49
2023/11/24 08:19:22;;;;;;;5.30;0.83;;;3.90;99.90;;;;;;5019484;28;20330;-45
2023/11/24 08:21:49;;;;;;;7.73;0.80;;;3.90;99.90;;;;;;5047445;28;20210;-49
2023/11/24 08:24:17;;;;;;;8.53;1.47;;;3.90;99.90;;;;;;5044132;28;20237;-45
2023/11/24 08:26:44;;;;;;;5.17;1.10;;;4.00;99.90;;;;;;5043288;28;20198;-53
2023/11/24 08:29:12;;;;;;;5.47;1.40;;;4.10;99.90;;;;;;5042204;28;20191;-46
2023/11/24 08:31:40;;;;;;;6.47;1.40;;;4.20;99.90;;;;;;5054490;28;20272;-48
2023/11/24 08:34:08;;;;;;;6.73;1.47;;;4.30;99.90;;;;;;5026428;28;20970;-48
2023/11/24 08:36:35;;;;;;;5.57;1.40;;;4.40;99.90;;;;;;5052706;28;20277;-46
2023/11/24 08:39:09;;;;;;;10.67;1.33;;;4.40;99.90;;;;;;5048157;28;20956;-48
2023/11/24 08:41:38;;;;;;;7.60;1.47;;;4.50;99.90;;;;;;5059963;28;20244;-46
2023/11/24 08:44:06;;;;;;;11.87;1.70;;;4.50;99.90;;;;;;5039584;28;21085;-49
2023/11/24 08:46:32;;;;;;;6.07;1.63;;;4.60;99.90;;;;;;5053308;28;20210;-50
2023/11/24 08:48:59;;;;;;;8.07;1.40;;;4.60;99.90;;;;;;5031245;28;20201;-51
2023/11/24 08:51:27;;;;;;;6.33;1.70;;;4.60;99.90;;;;;;5045888;28;20273;-47
2023/11/24 08:53:54;;;;;;;4.90;1.10;;;4.70;99.90;;;;;;5048825;28;20211;-53
2023/11/24 08:56:21;;;;;;;4.73;0.90;;;4.80;99.90;;;;;;5057065;28;20195;-47
2023/11/24 08:58:50;;;;;;;6.47;1.27;;;4.80;99.90;;;;;;5047281;28;20735;-53
2023/11/24 09:01:17;;;;;;;7.13;1.30;;;4.80;99.90;;;;;;5051236;28;20206;-51
2023/11/24 09:03:44;;;;;;;5.57;1.00;;;4.80;99.90;;;;;;5062847;28;20222;-49
2023/11/24 09:06:11;;;;;;;7.77;1.53;;;4.80;99.90;;;;;;5022202;28;20923;-54
2023/11/24 09:08:38;;;;;;;5.10;1.50;;;4.70;99.90;;;;;;5059281;28;20286;-46
2023/11/24 09:11:06;;;;;;;9.20;1.10;;;4.50;99.90;;;;;;5053706;28;20295;-46
2023/11/24 09:13:34;;;;;;;10.37;1.50;;;4.40;99.90;;;;;;5046047;28;20250;-49
2023/11/24 09:16:03;;;;;;;5.27;1.13;;;4.20;99.90;;;;;;5051970;28;20206;-47
2023/11/24 09:18:30;;;;;;;4.47;1.03;;;4.20;99.90;;;;;;5054072;28;20841;-51
2023/11/24 09:20:57;;;;;;;6.23;1.17;;;4.20;99.90;;;;;;5033387;28;20207;-46
2023/11/24 09:23:24;;;;;;;6.63;1.23;;;4.20;99.90;;;;;;5059357;28;20708;-54
2023/11/24 09:25:51;;;;;;;2.63;1.20;;;4.30;99.90;;;;;;5049479;28;20264;-49
2023/11/24 09:28:18;;;;;;;6.13;1.10;;;4.50;99.90;;;;;;5048187;28;20198;-54
2023/11/24 09:30:45;;;;;;;6.03;1.00;;;4.50;99.90;;;;;;5049136;28;20252;-51
2023/11/24 09:33:13;;;;;;;3.33;0.80;;;4.50;99.90;;;;;;5055566;28;20214;-53
2023/11/24 09:35:40;;;;;;;6.93;1.33;;;4.60;99.90;;;;;;5061172;28;20889;-51
2023/11/24 09:38:07;;;;;;;6.00;1.10;;;4.70;99.90;;;;;;5035820;28;20264;-53
2023/11/24 09:40:37;;;;;;;9.23;1.70;;;4.70;99.90;;;;;;5047575;28;20206;-50
2023/11/24 09:43:05;;;;;;;7.97;1.30;;;4.90;99.90;;;;;;5052035;28;20226;-48
2023/11/24 09:45:32;;;;;;;4.40;1.20;;;4.90;99.90;;;;;;5042103;28;20207;-49
2023/11/24 09:48:01;;;;;;;8.57;1.30;;;4.90;99.90;;;;;;5054434;28;20275;-52
2023/11/24 09:50:30;;;;;;;5.60;0.97;;;4.90;99.90;;;;;;5057899;28;20187;-47
2023/11/24 09:52:58;;;;;;;4.63;1.10;;;4.80;99.90;;;;;;5030546;28;20223;-48
2023/11/24 09:55:27;;;;;;;4.43;1.27;;;4.80;99.90;;;;;;5059036;28;20217;-51
2023/11/24 09:57:55;;;;;;;4.23;1.13;;;4.70;99.90;;;;;;5050945;28;20202;-46
2023/11/24 10:00:23;;;;;;;5.10;0.97;;;4.60;99.90;;;;;;5041708;28;20195;-54
2023/11/24 10:02:52;;;;;;;6.13;1.17;;;4.40;99.90;;;;;;5051810;28;20238;-51
2023/11/24 10:05:20;;;;;;;6.57;1.47;;;4.30;99.90;;;;;;5051489;28;20302;-54
2023/11/24 10:07:50;;;;;;;5.80;1.30;;;4.20;99.90;;;;;;5060581;28;20195;-49
2023/11/24 10:10:23;;;;;;;6.30;1.03;;;4.10;99.90;;;;;;5032362;28;20644;-53
2023/11/24 10:12:51;;;;;;;5.03;1.40;;;4.20;99.90;;;;;;5050416;28;20218;-51
2023/11/24 10:15:20;;;;;;;5.97;1.80;;;4.30;99.90;;;;;;5049243;28;20218;-55
2023/11/24 10:17:48;;;;;;;5.80;1.20;;;4.40;99.90;;;;;;5051730;28;20202;-47
2023/11/24 10:20:18;;;;;;;7.07;1.30;;;4.50;99.90;;;;;;5052352;28;20205;-54
2023/11/24 10:22:46;;;;;;;7.40;1.63;;;4.50;99.90;;;;;;5060600;28;20182;-50
2023/11/24 10:25:19;;;;;;;7.70;1.63;;;4.60;99.90;;;;;;5031851;28;20226;-55
2023/11/24 10:27:46;;;;;;;5.50;1.57;;;4.60;99.90;;;;;;5050220;28;20260;-47
2023/11/24 10:30:13;;;;;;;8.10;1.60;;;4.60;99.90;;;;;;5059986;28;20277;-53
2023/11/24 10:32:43;;;;;;;4.47;1.80;;;4.60;99.90;;;;;;5049041;28;20280;-49
2023/11/24 10:35:12;;;;;;;2.87;0.80;;;4.60;99.90;;;;;;5048053;28;20203;-53
2023/11/24 10:37:41;;;;;;;6.23;1.33;;;4.50;99.90;;;;;;5055016;28;20806;-54
2023/11/24 10:40:13;;;;;;;9.43;1.57;;;4.50;99.90;;;;;;5033181;28;20194;-54
2023/11/24 10:42:47;;;;;;;9.17;1.93;;;4.50;99.90;;;;;;5049742;28;20506;-51
2023/11/24 10:45:18;;;;;;;8.57;1.70;;;4.50;99.90;;;;;;5057534;28;20618;-54
2023/11/24 10:47:59;;;;;;;5.83;1.17;;;4.60;99.90;;;;;;5050378;28;20267;-54
2023/11/24 10:50:27;;;;;;;5.83;1.03;;;4.60;99.90;;;;;;5041246;28;20623;-54
2023/11/24 10:53:06;;;;;;;3.47;1.07;;;4.70;99.90;;;;;;5057548;28;20222;-47
2023/11/24 10:55:36;;;;;;;6.07;1.00;;;4.80;99.90;;;;;;5021059;28;20584;-48
2023/11/24 10:58:05;;;;;;;5.07;1.37;;;4.80;99.90;;;;;;5050238;28;20204;-52
2023/11/24 11:00:34;;;;;;;2.97;1.00;;;4.90;99.90;;;;;;5056716;28;20190;-47
2023/11/24 11:03:03;;;;;;;9.00;1.30;;;4.90;99.90;;;;;;5047781;28;20203;-52
2023/11/24 11:05:42;;;;;;;8.37;1.60;;;4.90;99.90;;;;;;5048368;28;20221;-46
2023/11/24 11:08:18;;;;;;;6.33;1.43;;;4.90;99.90;;;;;;5044258;28;20230;-50
2023/11/24 11:11:05;;;;;;;4.03;0.80;;;4.90;99.90;;;;;;5029127;28;20225;-48
2023/11/24 11:13:36;;;;;;;8.47;1.20;;;4.90;99.90;;;;;;5058793;28;20310;-47
2023/11/24 11:16:04;;;;;;;4.27;0.70;;;4.80;99.90;;;;;;5045369;28;20248;-53
2023/11/24 11:18:33;;;;;;;2.13;0.50;;;4.70;99.90;;;;;;5050213;28;20201;-46
2023/11/24 11:21:10;;;;;;;6.50;0.97;;;4.60;99.90;;;;;;5046563;28;20280;-53
2023/11/24 11:23:37;;;;;;;4.37;0.80;;;4.60;99.90;;;;;;5049875;28;21630;-48
2023/11/24 11:26:06;;;;;;;2.13;0.60;;;4.50;99.90;;;;;;5033825;28;20539;-52
2023/11/24 11:28:39;;;;;;;3.90;0.60;;;4.50;99.90;;;;;;5054203;28;20194;-52
2023/11/24 11:31:32;;;;;;;3.37;1.07;;;4.50;99.90;;;;;;5049260;28;20202;-53
2023/11/24 11:34:14;;;;;;;3.93;0.57;;;4.40;99.90;;;;;;5043895;28;20708;-53
2023/11/24 11:37:05;;;;;;;3.17;0.70;;;4.40;99.90;;;;;;5055873;28;20682;-50
2023/11/24 11:39:35;;;;;;;4.27;0.80;;;4.50;99.90;;;;;;5060345;28;20297;-52
2023/11/24 11:42:04;;;;;;;5.43;1.10;;;4.60;99.90;;;;;;5034926;28;20687;-54
2023/11/24 11:44:39;;;;;;;1.80;0.63;;;4.70;99.90;;;;;;5050801;28;20568;-48
2023/11/24 11:47:10;;;;;;;2.63;0.60;;;4.70;99.90;;;;;;5057469;28;20619;-55
2023/11/24 11:49:40;;;;;;;4.33;0.60;;;4.70;99.90;;;;;;5046587;28;20215;-46
2023/11/24 11:52:08;;;;;;;1.37;0.70;;;4.60;99.90;;;;;;5044949;28;20221;-55
2023/11/24 11:54:36;;;;;;;3.53;0.70;;;4.60;99.90;;;;;;5056613;28;20238;-47
2023/11/24 11:57:03;;;;;;;6.67;0.90;;;4.60;99.90;;;;;;5055605;28;20248;-54
2023/11/24 11:59:31;;;;;;;3.03;0.50;;;4.60;99.90;;;;;;5030766;28;20214;-50
2023/11/24 12:01:59;;;;;;;2.60;1.00;;;4.50;99.90;;;;;;5048534;28;20673;-53
2023/11/24 12:04:28;;;;;;;7.30;0.77;;;4.50;99.90;;;;;;5058916;28;20206;-49
2023/11/24 12:06:55;;;;;;;2.83;0.63;;;4.50;99.90;;;;;;5049914;28;20657;-55
2023/11/24 12:09:23;;;;;;;1.27;0.50;;;4.50;99.90;;;;;;5046693;28;20191;-47
2023/11/24 12:11:50;;;;;;;3.20;0.67;;;4.50;99.90;;;;;;5060158;28;20646;-52
2023/11/24 12:14:17;;;;;;;2.50;0.60;;;4.40;99.90;;;;;;5028863;28;20238;-55
2023/11/24 12:16:45;;;;;;;4.67;0.80;;;4.40;99.90;;;;;;5050927;28;20199;-48
2023/11/24 12:19:13;;;;;;;1.73;0.93;;;4.40;99.90;;;;;;5061131;28;20672;-53
2023/11/24 12:21:42;;;;;;;5.53;0.70;;;4.40;99.90;;;;;;5045621;28;20906;-51
2023/11/24 12:24:10;;;;;;;6.77;0.60;;;4.40;99.90;;;;;;5056207;28;20288;-47
2023/11/24 12:26:39;;;;;;;5.47;0.90;;;4.30;99.90;;;;;;5060251;28;20281;-48
2023/11/24 12:29:11;;;;;;;2.53;0.80;;;4.40;99.90;;;;;;5034508;28;20694;-47
2023/11/24 12:31:41;;;;;;;0.80;0.47;;;4.40;99.90;;;;;;5053190;28;20264;-48
2023/11/24 12:34:20;;;;;;;6.90;0.97;;;4.40;99.90;;;;;;5060317;28;20763;-50
2023/11/24 12:36:53;;;;;;;3.00;0.77;;;4.40;99.90;;;;;;5050036;28;20198;-47
2023/11/24 12:39:23;;;;;;;2.93;0.70;;;4.40;99.90;;;;;;5062101;28;20286;-52
2023/11/24 12:41:50;;;;;;;4.90;0.87;;;4.40;99.90;;;;;;5054468;28;20672;-48
2023/11/24 12:44:17;;;;;;;7.10;0.80;;;4.40;99.90;;;;;;5029192;28;25308;-51
2023/11/24 12:46:44;;;;;;;5.67;0.90;;;4.40;99.90;;;;;;5042656;28;20195;-47
2023/11/24 12:49:11;;;;;;;4.23;0.90;;;4.40;99.90;;;;;;5061661;28;20252;-50
2023/11/24 12:51:46;;;;;;;4.73;1.10;;;4.30;99.90;;;;;;5050843;28;20217;-47
2023/11/24 12:54:13;;;;;;;2.77;0.90;;;4.30;99.90;;;;;;5057272;28;20210;-48
2023/11/24 12:56:40;;;;;;;6.87;1.23;;;4.30;99.90;;;;;;5049272;28;20773;-50
2023/11/24 12:59:10;;;;;;;5.63;1.20;;;4.30;99.90;;;;;;5046793;28;20251;-53